Time;durP1;ratioP1;P1;durP2;ratioP2;P2;SDS_P1;SDS_P2;PMS_P1;PMS_P2;Temp;Humidity;BMP_temperature;BMP_pressure;BME280_temperature;BME280_humidity;BME280_pressure;Samples;Min_cycle;Max_cycle;Signal;HPM_P1;HPM_P2
2023/04/17 00:00:20;;;;;;;12.82;7.25;;;8.60;99.90;;;;;;5061810;28;20183;-91
2023/04/17 00:02:49;;;;;;;15.27;7.25;;;8.90;99.90;;;;;;5067472;28;20159;-90
2023/04/17 00:05:15;;;;;;;13.65;6.05;;;8.70;99.90;;;;;;5073637;28;20215;-90
2023/04/17 00:07:42;;;;;;;17.38;7.68;;;8.50;99.90;;;;;;5069011;28;20180;-89
2023/04/17 00:10:11;;;;;;;13.85;6.85;;;5.90;99.90;;;;;;5073549;28;20191;-89
2023/04/17 00:12:37;;;;;;;12.80;6.40;;;8.40;99.90;;;;;;5066408;28;20225;-89
2023/04/17 00:15:03;;;;;;;13.05;5.53;;;8.30;99.90;;;;;;5062300;28;20171;-90
2023/04/17 00:17:31;;;;;;;10.33;5.47;;;8.30;99.90;;;;;;5063190;28;20191;-89
2023/04/17 00:19:57;;;;;;;11.85;5.63;;;8.40;99.90;;;;;;5065537;28;20180;-90
2023/04/17 00:22:22;;;;;;;11.53;6.03;;;8.30;99.90;;;;;;5068101;28;20172;-90
2023/04/17 00:24:48;;;;;;;10.73;5.77;;;9.30;99.90;;;;;;5062783;28;20234;-90
2023/04/17 00:27:14;;;;;;;13.05;6.35;;;;;;;;;;5064086;28;20211;-90
2023/04/17 00:29:40;;;;;;;10.90;5.67;;;8.20;99.90;;;;;;5062947;28;20242;-90
2023/04/17 00:32:06;;;;;;;11.23;6.17;;;;;;;;;;5061000;28;20179;-90
2023/04/17 00:34:32;;;;;;;10.30;6.27;;;8.10;99.90;;;;;;5061909;28;20210;-90
2023/04/17 00:36:58;;;;;;;11.20;5.47;;;;;;;;;;5060958;28;20182;-89
2023/04/17 00:39:24;;;;;;;10.27;5.60;;;8.10;99.90;;;;;;5061789;28;20244;-90
2023/04/17 00:41:50;;;;;;;11.50;5.43;;;8.00;99.90;;;;;;5060538;28;20168;-90
2023/04/17 00:44:16;;;;;;;10.73;5.43;;;;;;;;;;5060087;28;20239;-90
2023/04/17 00:46:42;;;;;;;10.60;5.60;;;8.00;99.90;;;;;;5060225;28;20182;-91
2023/04/17 00:49:08;;;;;;;9.67;5.27;;;7.90;99.90;;;;;;5044517;28;20310;-90
2023/04/17 00:51:34;;;;;;;10.95;5.43;;;7.90;99.90;;;;;;5043422;28;20213;-89
2023/04/17 00:54:03;;;;;;;14.23;5.57;;;;;;;;;;5058780;28;20243;-90
2023/04/17 00:56:31;;;;;;;9.97;5.37;;;7.90;99.90;;;;;;5058056;28;20626;-89
2023/04/17 00:58:58;;;;;;;11.83;6.77;;;7.80;99.90;;;;;;5076738;28;20218;-89
2023/04/17 01:01:23;;;;;;;10.87;5.87;;;7.80;99.90;;;;;;5075344;28;20160;-88
2023/04/17 01:03:52;;;;;;;12.23;4.90;;;7.80;99.90;;;;;;5077304;28;20199;-88
2023/04/17 01:06:18;;;;;;;11.50;5.17;;;7.80;99.90;;;;;;5062897;28;20635;-90
2023/04/17 01:08:44;;;;;;;7.80;4.73;;;7.80;99.90;;;;;;5058469;28;20654;-90
2023/04/17 01:11:11;;;;;;;9.93;5.10;;;7.70;99.90;;;;;;5058816;28;20184;-90
2023/04/17 01:13:49;;;;;;;9.00;5.73;;;7.80;99.90;;;;;;5042233;28;20631;-90
2023/04/17 01:16:16;;;;;;;9.03;5.43;;;7.70;99.90;;;;;;5058660;28;20180;-90
2023/04/17 01:18:42;;;;;;;11.87;5.13;;;7.70;99.90;;;;;;5058891;28;20176;-89
2023/04/17 01:21:08;;;;;;;9.87;5.20;;;7.50;99.90;;;;;;5059296;28;20202;-90
2023/04/17 01:23:51;;;;;;;14.93;5.90;;;7.70;99.90;;;;;;5059146;28;20180;-90
2023/04/17 01:26:24;;;;;;;12.13;5.03;;;7.60;99.90;;;;;;5060108;28;20541;-90
2023/04/17 01:28:58;;;;;;;17.57;7.10;;;7.70;99.90;;;;;;5043587;28;20231;-91
2023/04/17 01:31:24;;;;;;;11.43;5.87;;;7.60;99.90;;;;;;5061399;28;20187;-92
2023/04/17 01:33:51;;;;;;;11.50;5.77;;;7.60;99.90;;;;;;5063478;28;20200;-90
2023/04/17 01:36:17;;;;;;;14.17;6.50;;;7.50;99.90;;;;;;5066610;28;20180;-92
2023/04/17 01:38:44;;;;;;;11.07;5.50;;;;;;;;;;5058340;28;20184;-90
2023/04/17 01:41:10;;;;;;;11.70;5.93;;;;;;;;;;5059166;28;20267;-91
2023/04/17 01:43:45;;;;;;;7.97;5.23;;;7.50;99.90;;;;;;5059962;28;20186;-90
2023/04/17 01:46:10;;;;;;;9.60;5.27;;;7.30;99.90;;;;;;5062737;28;20181;-91
2023/04/17 01:48:37;;;;;;;10.00;5.20;;;7.50;99.90;;;;;;5062274;28;20243;-92
2023/04/17 01:51:03;;;;;;;8.93;5.80;;;7.50;99.90;;;;;;5062298;28;20207;-91
2023/04/17 01:53:30;;;;;;;12.83;6.17;;;7.50;99.90;;;;;;5063057;28;20203;-91
2023/04/17 01:55:56;;;;;;;15.10;7.23;;;7.50;99.90;;;;;;5062351;28;20756;-91
2023/04/17 01:58:22;;;;;;;15.93;6.93;;;;;;;;;;5062077;28;20178;-91
2023/04/17 02:00:49;;;;;;;15.43;6.20;;;;;;;;;;5061243;28;20180;-91
2023/04/17 02:03:15;;;;;;;15.93;6.37;;;;;;;;;;5063461;28;20180;-91
2023/04/17 02:05:45;;;;;;;15.97;6.60;;;7.40;99.90;;;;;;5064177;28;20183;-91
2023/04/17 02:08:11;;;;;;;8.47;4.87;;;;;;;;;;5061954;28;20180;-92
2023/04/17 02:10:36;;;;;;;10.90;4.87;;;7.40;99.90;;;;;;5062600;28;20262;-91
2023/04/17 02:13:02;;;;;;;10.23;4.77;;;;;;;;;;5044548;28;20184;-92
2023/04/17 02:15:28;;;;;;;15.67;6.30;;;7.50;99.90;;;;;;5063313;28;20195;-92
2023/04/17 02:17:54;;;;;;;11.70;5.97;;;;;;;;;;5062271;28;20183;-90
2023/04/17 02:20:20;;;;;;;12.23;5.90;;;7.60;99.90;;;;;;5061504;28;20184;-90
2023/04/17 02:22:46;;;;;;;11.13;5.77;;;7.50;99.90;;;;;;5046438;28;20187;-91
2023/04/17 02:25:12;;;;;;;7.67;5.23;;;;;;;;;;5061225;28;20546;-91
2023/04/17 02:27:37;;;;;;;8.50;4.73;;;7.70;99.90;;;;;;5062346;28;20641;-91
2023/04/17 02:30:03;;;;;;;8.17;4.97;;;7.80;99.90;;;;;;5062224;28;20227;-91
2023/04/17 02:32:29;;;;;;;11.13;4.97;;;7.80;99.90;;;;;;5044937;28;20176;-90
2023/04/17 02:34:55;;;;;;;11.53;6.57;;;;;;;;;;5029268;28;20214;-90
2023/04/17 02:37:21;;;;;;;12.40;5.97;;;7.80;99.90;;;;;;5045018;28;20187;-91
2023/04/17 02:39:47;;;;;;;13.03;6.57;;;;;;;;;;5044709;28;20176;-91
2023/04/17 02:42:13;;;;;;;14.40;6.40;;;7.90;99.90;;;;;;5061922;28;20172;-90
2023/04/17 02:44:39;;;;;;;12.43;6.13;;;;;;;;;;5044856;28;20176;-90
2023/04/17 02:47:05;;;;;;;10.60;5.53;;;7.90;99.90;;;;;;5045311;28;20186;-91
2023/04/17 02:49:31;;;;;;;16.67;6.50;;;7.90;99.90;;;;;;5043817;28;20215;-89
2023/04/17 02:51:57;;;;;;;16.10;6.97;;;;;;;;;;5043628;28;20238;-90
2023/04/17 02:54:23;;;;;;;12.43;5.80;;;;;;;;;;5053227;28;20184;-90
2023/04/17 02:56:51;;;;;;;12.37;6.20;;;8.00;99.90;;;;;;5055007;28;20184;-90
2023/04/17 02:59:16;;;;;;;13.93;6.90;;;8.00;99.90;;;;;;5054554;28;20551;-90
2023/04/17 03:01:44;;;;;;;13.60;5.80;;;8.00;99.90;;;;;;5046392;28;20187;-90
2023/04/17 03:04:10;;;;;;;14.60;6.67;;;8.10;99.90;;;;;;5029744;28;20200;-90
2023/04/17 03:06:36;;;;;;;10.93;5.17;;;8.10;99.90;;;;;;5046729;28;20176;-89
2023/04/17 03:09:02;;;;;;;11.27;6.80;;;;;;;;;;5029159;28;20188;-89
2023/04/17 03:11:28;;;;;;;13.30;7.30;;;8.10;99.90;;;;;;5044785;28;20700;-91
2023/04/17 03:13:56;;;;;;;17.63;7.83;;;8.20;99.90;;;;;;5045570;28;20184;-91
2023/04/17 03:16:22;;;;;;;16.90;8.47;;;8.10;99.90;;;;;;5027986;28;20184;-91
2023/04/17 03:18:48;;;;;;;14.03;6.63;;;;;;;;;;5044640;28;20186;-91
2023/04/17 03:21:14;;;;;;;15.60;7.60;;;8.20;99.90;;;;;;5046727;28;20188;-89
2023/04/17 03:23:40;;;;;;;14.43;7.57;;;;;;;;;;5046884;28;20695;-90
2023/04/17 03:26:06;;;;;;;13.70;6.90;;;;;;;;;;5043386;28;20179;-90
2023/04/17 03:28:32;;;;;;;15.80;7.23;;;8.20;99.90;;;;;;5047220;28;20230;-90
2023/04/17 03:30:58;;;;;;;19.50;8.27;;;8.60;99.90;;;;;;5044399;28;20203;-93
2023/04/17 03:33:24;;;;;;;14.87;7.43;;;8.30;99.90;;;;;;5061870;28;20176;-91
2023/04/17 03:35:50;;;;;;;16.20;7.67;;;8.20;99.90;;;;;;5059668;28;20191;-90
2023/04/17 03:38:16;;;;;;;14.47;6.93;;;;;;;;;;5062466;28;20571;-90
2023/04/17 03:40:42;;;;;;;13.37;7.07;;;8.20;99.90;;;;;;5061445;28;20593;-90
2023/04/17 03:43:08;;;;;;;13.17;6.73;;;8.30;99.90;;;;;;5062375;28;20176;-92
2023/04/17 03:45:34;;;;;;;15.23;7.20;;;;;;;;;;5060652;28;20176;-91
2023/04/17 03:48:00;;;;;;;14.23;7.00;;;8.30;99.90;;;;;;5062193;28;20179;-89
2023/04/17 03:50:26;;;;;;;12.17;6.87;;;;;;;;;;5062273;28;20207;-89
2023/04/17 03:52:53;;;;;;;13.47;5.77;;;8.30;99.90;;;;;;5059083;28;20680;-92
2023/04/17 03:55:19;;;;;;;10.70;6.00;;;;;;;;;;5052710;28;20176;-89
2023/04/17 03:57:44;;;;;;;13.43;6.13;;;8.30;99.90;;;;;;5050413;28;20215;-90
2023/04/17 04:00:22;;;;;;;16.97;7.27;;;8.30;99.90;;;;;;5048078;28;20189;-88
2023/04/17 04:02:48;;;;;;;10.20;6.13;;;8.40;99.90;;;;;;5044759;28;20182;-89
2023/04/17 04:05:16;;;;;;;15.67;7.50;;;8.40;99.90;;;;;;5042847;28;20204;-89
2023/04/17 04:07:42;;;;;;;16.50;7.60;;;8.40;99.90;;;;;;5024115;28;20204;-89
2023/04/17 04:10:08;;;;;;;17.03;8.00;;;8.60;99.90;;;;;;5027838;28;20574;-90
2023/04/17 04:12:34;;;;;;;14.90;7.23;;;8.90;99.90;;;;;;5024492;28;20188;-89
2023/04/17 04:15:00;;;;;;;17.48;7.95;;;;;;;;;;5044956;28;20187;-89
2023/04/17 04:17:25;;;;;;;20.47;8.80;;;8.50;99.90;;;;;;5047044;28;20240;-89
2023/04/17 04:19:51;;;;;;;21.20;8.27;;;8.50;99.90;;;;;;5021481;28;20189;-92
2023/04/17 04:22:20;;;;;;;23.93;8.40;;;8.60;99.90;;;;;;5046133;28;20200;-90
2023/04/17 04:24:52;;;;;;;15.10;7.90;;;8.70;99.90;;;;;;5024516;28;20188;-90
2023/04/17 04:27:21;;;;;;;26.37;9.47;;;8.60;99.90;;;;;;5039685;28;20191;-89
2023/04/17 04:29:48;;;;;;;22.60;8.97;;;8.60;99.90;;;;;;5002990;28;20237;-89
2023/04/17 04:32:19;;;;;;;19.73;8.87;;;8.90;99.90;;;;;;5051560;28;20187;-89
2023/04/17 04:34:45;;;;;;;19.48;8.55;;;8.60;99.90;;;;;;5039996;28;20173;-89
2023/04/17 04:37:15;;;;;;;15.87;8.10;;;8.80;99.90;;;;;;5039103;28;20184;-89
2023/04/17 04:39:42;;;;;;;21.92;9.52;;;8.70;99.90;;;;;;5039634;28;20208;-89
2023/04/17 04:42:08;;;;;;;17.90;7.50;;;8.80;99.90;;;;;;5039017;28;20247;-90
2023/04/17 04:44:36;;;;;;;16.10;8.77;;;8.70;99.90;;;;;;5041581;28;20183;-90
2023/04/17 04:47:05;;;;;;;14.80;7.40;;;9.00;99.90;;;;;;5039546;28;20185;-90
2023/04/17 04:49:34;;;;;;;17.85;8.15;;;8.80;99.90;;;;;;5039521;28;20220;-90
2023/04/17 04:52:00;;;;;;;16.50;7.60;;;8.80;99.90;;;;;;5022991;28;20191;-90
2023/04/17 04:54:29;;;;;;;19.20;7.35;;;9.30;99.90;;;;;;5038559;28;20192;-92
2023/04/17 04:56:55;;;;;;;15.13;6.83;;;9.00;99.90;;;;;;5037674;28;20557;-90
2023/04/17 04:59:22;;;;;;;17.48;6.80;;;;;;;;;;5063902;28;20275;-88
2023/04/17 05:01:49;;;;;;;13.77;5.28;;;9.00;99.90;;;;;;5062593;28;20216;-91
2023/04/17 05:04:16;;;;;;;13.55;6.95;;;8.80;99.90;;;;;;5049426;28;20207;-92
2023/04/17 05:06:41;;;;;;;17.98;7.05;;;9.30;99.90;;;;;;5040512;28;20188;-91
2023/04/17 05:09:07;;;;;;;15.13;6.78;;;8.90;99.90;;;;;;5023841;28;20674;-90
2023/04/17 05:11:33;;;;;;;17.95;8.25;;;9.20;99.90;;;;;;5039273;28;20223;-91
2023/04/17 05:13:59;;;;;;;15.05;6.55;;;;;;;;;;5042058;28;20180;-90
2023/04/17 05:16:25;;;;;;;18.80;7.10;;;9.00;99.90;;;;;;5060995;28;20546;-89
2023/04/17 05:18:53;;;;;;;18.38;7.05;;;9.40;99.90;;;;;;5061446;28;20172;-89
2023/04/17 05:21:19;;;;;;;13.23;6.43;;;9.00;99.90;;;;;;5065437;28;20168;-89
2023/04/17 05:23:46;;;;;;;18.52;7.65;;;;;;;;;;5062761;28;20282;-88
2023/04/17 05:26:11;;;;;;;13.25;7.03;;;9.10;99.90;;;;;;5063081;28;20180;-90
2023/04/17 05:28:38;;;;;;;13.95;7.00;;;;;;;;;;5064572;28;20314;-90
2023/04/17 05:31:06;;;;;;;16.50;7.20;;;9.30;99.90;;;;;;5047404;28;20212;-89
2023/04/17 05:33:50;;;;;;;16.77;8.10;;;9.30;99.90;;;;;;5064748;28;20190;-89
2023/04/17 05:36:16;;;;;;;12.18;6.00;;;10.00;99.90;;;;;;5062394;28;20226;-90
2023/04/17 05:38:42;;;;;;;16.65;7.18;;;;;;;;;;5030947;28;20187;-90
2023/04/17 05:41:08;;;;;;;17.58;6.70;;;9.50;99.90;;;;;;5058235;28;20179;-92
2023/04/17 05:43:34;;;;;;;13.38;6.78;;;9.60;99.90;;;;;;5057282;28;20630;-90
2023/04/17 05:46:00;;;;;;;17.05;6.85;;;9.60;99.90;;;;;;5058209;28;20180;-90
2023/04/17 05:48:26;;;;;;;15.48;7.30;;;9.70;99.90;;;;;;5058423;28;20180;-89
2023/04/17 05:50:52;;;;;;;13.95;7.10;;;9.80;99.90;;;;;;5041272;28;20215;-90
2023/04/17 05:53:19;;;;;;;16.83;6.82;;;10.40;99.90;;;;;;5059022;28;20176;-90
2023/04/17 05:55:46;;;;;;;17.52;6.78;;;9.80;99.90;;;;;;5058174;28;20180;-89
2023/04/17 05:58:12;;;;;;;18.45;6.82;;;9.90;99.90;;;;;;5058041;28;20197;-88
2023/04/17 06:00:37;;;;;;;13.98;6.82;;;9.90;99.90;;;;;;5040453;28;20180;-88
2023/04/17 06:03:04;;;;;;;16.10;6.32;;;;;;;;;;5057730;28;20179;-89
2023/04/17 06:05:30;;;;;;;16.73;6.90;;;9.90;99.90;;;;;;5039931;28;20183;-88
2023/04/17 06:07:57;;;;;;;11.50;5.75;;;9.90;99.90;;;;;;5060609;28;20171;-89
2023/04/17 06:10:22;;;;;;;12.73;5.55;;;9.90;99.90;;;;;;5039797;28;20235;-89
2023/04/17 06:12:48;;;;;;;13.50;6.75;;;;;;;;;;5040031;28;20243;-88
2023/04/17 06:15:14;;;;;;;16.77;6.05;;;10.00;99.90;;;;;;5057748;28;20266;-89
2023/04/17 06:17:40;;;;;;;13.77;7.10;;;;;;;;;;5056963;28;20273;-89
2023/04/17 06:20:11;;;;;;;11.10;5.72;;;10.10;99.90;;;;;;5057054;28;20191;-89
2023/04/17 06:22:38;;;;;;;11.77;5.90;;;10.20;99.90;;;;;;5057620;28;20255;-90
2023/04/17 06:25:12;;;;;;;12.15;5.82;;;10.20;99.90;;;;;;5057746;28;20172;-89
2023/04/17 06:27:38;;;;;;;14.45;6.78;;;10.20;99.90;;;;;;5057747;28;20203;-88
2023/04/17 06:30:05;;;;;;;17.55;6.53;;;10.30;99.90;;;;;;5040755;28;20609;-88
2023/04/17 06:32:33;;;;;;;16.95;7.15;;;10.50;99.90;;;;;;5040901;28;20184;-90
2023/04/17 06:35:01;;;;;;;14.82;5.90;;;10.60;99.90;;;;;;5039232;28;20195;-89
2023/04/17 06:37:28;;;;;;;11.45;5.25;;;10.40;99.90;;;;;;5055896;28;20199;-89
2023/04/17 06:39:54;;;;;;;9.68;5.93;;;10.70;99.90;;;;;;5056570;28;20194;-89
2023/04/17 06:42:20;;;;;;;10.40;4.88;;;;;;;;;;5039176;28;20270;-90
2023/04/17 06:44:46;;;;;;;9.98;5.05;;;10.50;99.90;;;;;;5060669;28;20266;-87
2023/04/17 06:47:12;;;;;;;9.32;4.43;;;;;;;;;;5042837;28;20231;-90
2023/04/17 06:49:39;;;;;;;7.28;4.45;;;10.60;99.90;;;;;;5058190;28;20266;-90
2023/04/17 06:52:04;;;;;;;8.80;4.75;;;10.60;99.90;;;;;;5060290;28;20187;-89
2023/04/17 06:54:31;;;;;;;15.60;5.55;;;;;;;;;;5043155;28;20665;-90
2023/04/17 06:56:56;;;;;;;10.90;5.32;;;10.80;99.90;;;;;;5042403;28;20184;-89
2023/04/17 06:59:39;;;;;;;11.80;6.07;;;10.80;99.90;;;;;;5064169;28;20176;-89
2023/04/17 07:02:05;;;;;;;8.30;4.35;;;11.20;99.90;;;;;;5058687;28;20630;-91
2023/04/17 07:04:30;;;;;;;10.60;5.55;;;11.10;99.90;;;;;;5040523;28;20176;-90
2023/04/17 07:06:56;;;;;;;10.82;5.25;;;11.30;99.90;;;;;;5059613;28;20180;-90
2023/04/17 07:09:25;;;;;;;7.72;4.90;;;;;;;;;;5057957;28;20654;-91
2023/04/17 07:11:50;;;;;;;9.95;4.95;;;11.20;99.90;;;;;;5061721;28;20176;-90
2023/04/17 07:14:17;;;;;;;7.30;4.00;;;;;;;;;;5059736;28;20183;-90
2023/04/17 07:16:43;;;;;;;8.93;4.63;;;11.40;99.90;;;;;;5058607;28;20577;-89
2023/04/17 07:19:09;;;;;;;10.68;4.75;;;11.40;99.90;;;;;;5057362;28;20187;-88
2023/04/17 07:21:37;;;;;;;12.95;4.43;;;11.50;99.90;;;;;;5044630;28;20176;-89
2023/04/17 07:24:05;;;;;;;8.55;4.63;;;11.80;99.90;;;;;;5040501;28;20180;-91
2023/04/17 07:26:32;;;;;;;6.13;3.60;;;11.80;99.90;;;;;;5059476;28;20187;-89
2023/04/17 07:28:58;;;;;;;8.82;3.85;;;12.30;99.90;;;;;;5076466;28;20231;-90
2023/04/17 07:31:40;;;;;;;7.13;3.72;;;12.30;99.90;;;;;;5074919;28;20717;-92
2023/04/17 07:34:15;;;;;;;8.85;4.18;;;11.80;99.90;;;;;;5074336;28;20187;-91
2023/04/17 07:36:49;;;;;;;9.93;4.55;;;12.00;99.90;;;;;;5071299;28;20179;-91
2023/04/17 07:39:31;;;;;;;;;;;;;;;;;;;;;
2023/04/17 07:42:07;;;;;;;9.32;3.72;;;12.00;99.90;;;;;;5068806;28;20649;-89
2023/04/17 07:44:35;;;;;;;8.23;3.42;;;12.00;99.90;;;;;;5056223;28;20194;-89
2023/04/17 07:47:08;;;;;;;8.48;4.38;;;12.00;99.90;;;;;;5071515;28;20179;-90
2023/04/17 07:49:36;;;;;;;8.52;4.05;;;12.00;99.90;;;;;;5071996;28;20263;-87
2023/04/17 07:52:02;;;;;;;9.00;3.88;;;12.00;99.90;;;;;;5070963;28;20238;-89
2023/04/17 07:54:31;;;;;;;9.35;4.25;;;12.00;99.90;;;;;;5070721;28;20194;-88
2023/04/17 07:57:01;;;;;;;8.18;4.15;;;12.20;99.90;;;;;;5069902;28;20203;-91
2023/04/17 07:59:35;;;;;;;13.48;5.57;;;11.90;99.90;;;;;;5071401;28;20172;-91
2023/04/17 08:02:10;;;;;;;10.85;4.50;;;12.40;99.90;;;;;;5072255;28;20179;-89
2023/04/17 08:04:43;;;;;;;10.48;4.45;;;11.80;99.90;;;;;;5071033;28;20184;-88
2023/04/17 08:07:17;;;;;;;8.07;5.10;;;11.80;99.90;;;;;;5070380;28;20195;-90
2023/04/17 08:09:56;;;;;;;9.07;4.13;;;11.70;99.90;;;;;;5074043;28;20192;-90
2023/04/17 08:12:31;;;;;;;9.07;5.10;;;11.80;99.90;;;;;;5072528;28;20263;-89
2023/04/17 08:15:13;;;;;;;9.90;4.43;;;11.80;99.90;;;;;;5072357;28;20263;-89
2023/04/17 08:17:46;;;;;;;12.32;4.50;;;11.80;99.90;;;;;;5070152;28;20187;-88
2023/04/17 08:20:16;;;;;;;10.00;4.15;;;11.80;99.90;;;;;;5058497;28;20156;-89
2023/04/17 08:22:44;;;;;;;7.70;4.20;;;11.70;99.90;;;;;;5070833;28;20184;-87
2023/04/17 08:25:12;;;;;;;10.32;4.43;;;11.60;99.90;;;;;;5071732;28;20179;-87
2023/04/17 08:27:42;;;;;;;8.90;4.57;;;10.00;99.90;;;;;;5054066;28;20191;-89
2023/04/17 08:30:11;;;;;;;8.23;4.78;;;11.60;99.90;;;;;;5065387;28;20246;-89
2023/04/17 08:32:39;;;;;;;6.50;3.75;;;11.70;99.90;;;;;;5059202;28;20235;-91
2023/04/17 08:35:08;;;;;;;8.73;4.15;;;11.50;99.90;;;;;;5074655;28;20191;-90
2023/04/17 08:37:47;;;;;;;6.82;3.78;;;11.50;99.90;;;;;;5076388;28;20156;-92
2023/04/17 08:40:33;;;;;;;7.03;4.15;;;11.80;99.90;;;;;;5067716;28;20164;-90
2023/04/17 08:43:00;;;;;;;7.78;4.18;;;12.10;99.90;;;;;;5016060;28;20180;-90
2023/04/17 08:45:29;;;;;;;7.68;3.83;;;11.90;99.90;;;;;;5041434;28;20169;-90
2023/04/17 08:47:55;;;;;;;5.60;3.75;;;12.20;99.90;;;;;;5044906;28;20180;-89
2023/04/17 08:50:22;;;;;;;5.75;4.00;;;;;;;;;;5022571;28;20251;-89
2023/04/17 08:52:50;;;;;;;9.88;4.47;;;12.00;99.90;;;;;;5043828;28;20214;-90
2023/04/17 08:55:21;;;;;;;11.43;3.80;;;12.00;99.90;;;;;;5045649;28;20214;-91
2023/04/17 08:58:04;;;;;;;6.43;3.50;;;12.00;99.90;;;;;;5039570;28;20241;-90
2023/04/17 09:00:35;;;;;;;6.97;3.33;;;12.00;99.90;;;;;;5046704;28;20172;-90
2023/04/17 09:03:03;;;;;;;8.00;4.07;;;12.30;99.90;;;;;;5041621;28;20176;-90
2023/04/17 09:05:32;;;;;;;8.25;4.32;;;12.30;99.90;;;;;;5046888;28;20179;-92
2023/04/17 09:08:19;;;;;;;8.13;4.63;;;12.10;99.90;;;;;;5043210;28;20180;-90
2023/04/17 09:10:50;;;;;;;9.90;4.57;;;12.00;99.90;;;;;;5064773;28;20230;-88
2023/04/17 09:13:21;;;;;;;17.73;8.18;;;12.00;99.90;;;;;;5051260;28;20227;-90
2023/04/17 09:16:12;;;;;;;7.63;4.50;;;12.00;99.90;;;;;;5045978;28;20650;-89
2023/04/17 09:18:40;;;;;;;6.75;3.63;;;11.90;99.90;;;;;;5055945;28;20255;-87
2023/04/17 09:21:08;;;;;;;8.73;4.00;;;11.90;99.90;;;;;;5053293;28;20525;-89
2023/04/17 09:23:53;;;;;;;7.45;4.18;;;11.60;99.90;;;;;;5054720;28;20207;-89
2023/04/17 09:26:20;;;;;;;10.32;5.72;;;11.90;99.90;;;;;;5045062;28;20176;-90
2023/04/17 09:29:03;;;;;;;8.05;4.60;;;11.90;99.90;;;;;;5046027;28;20594;-91
2023/04/17 09:31:33;;;;;;;7.85;4.45;;;11.80;99.90;;;;;;5066619;28;20238;-89
2023/04/17 09:34:00;;;;;;;8.35;4.57;;;11.80;99.90;;;;;;5022594;28;20651;-90
2023/04/17 09:36:27;;;;;;;8.15;4.97;;;12.00;99.90;;;;;;5045528;28;20196;-89
2023/04/17 09:38:53;;;;;;;10.57;5.47;;;11.80;99.90;;;;;;5041774;28;20168;-89
2023/04/17 09:41:27;;;;;;;8.55;4.70;;;11.90;99.90;;;;;;5023258;28;20234;-89
2023/04/17 09:43:55;;;;;;;11.02;5.10;;;11.90;99.90;;;;;;5043965;28;20175;-88
2023/04/17 09:46:45;;;;;;;11.43;4.80;;;11.90;99.90;;;;;;5036056;28;20173;-89
2023/04/17 09:49:32;;;;;;;9.82;5.05;;;11.90;99.90;;;;;;5041333;28;20629;-90
2023/04/17 09:51:58;;;;;;;9.38;4.47;;;12.00;99.90;;;;;;5066752;28;20173;-87
2023/04/17 09:54:25;;;;;;;7.93;4.22;;;11.90;99.90;;;;;;5049244;28;20212;-89
2023/04/17 09:56:54;;;;;;;6.18;3.45;;;11.80;99.90;;;;;;5043135;28;20192;-88
2023/04/17 09:59:23;;;;;;;9.40;4.78;;;11.90;99.90;;;;;;5037359;28;20172;-89
2023/04/17 10:01:50;;;;;;;9.13;4.88;;;11.90;99.90;;;;;;5029645;28;20208;-90
2023/04/17 10:04:18;;;;;;;8.38;4.35;;;12.40;99.90;;;;;;5040272;28;20202;-88
2023/04/17 10:06:44;;;;;;;10.93;5.68;;;11.80;99.90;;;;;;5052143;28;20176;-89
2023/04/17 10:09:09;;;;;;;5.80;3.95;;;11.90;99.90;;;;;;5041651;28;20263;-89
2023/04/17 10:11:37;;;;;;;10.77;5.43;;;11.90;99.90;;;;;;5020622;28;20291;-89
2023/04/17 10:14:16;;;;;;;15.27;6.65;;;11.80;99.90;;;;;;5037224;28;20172;-89
2023/04/17 10:16:42;;;;;;;8.68;4.72;;;11.90;99.90;;;;;;5036843;28;20689;-89
2023/04/17 10:19:33;;;;;;;19.05;7.57;;;10.80;99.90;;;;;;5021485;28;20188;-88
2023/04/17 10:22:16;;;;;;;15.48;5.47;;;11.90;99.90;;;;;;5036990;28;20169;-89
2023/04/17 10:24:50;;;;;;;15.95;7.80;;;11.70;99.90;;;;;;5049757;28;20211;-89
2023/04/17 10:27:29;;;;;;;11.35;5.60;;;11.60;99.90;;;;;;5037459;28;20199;-88
2023/04/17 10:30:04;;;;;;;11.02;4.47;;;11.60;99.90;;;;;;5044222;28;20216;-87
2023/04/17 10:32:31;;;;;;;8.77;4.72;;;11.60;99.90;;;;;;5008338;28;20172;-89
2023/04/17 10:35:15;;;;;;;10.50;4.90;;;11.50;99.90;;;;;;5018723;28;20263;-90
2023/04/17 10:37:47;;;;;;;12.77;5.40;;;11.50;99.90;;;;;;5019212;28;20181;-90
2023/04/17 10:40:19;;;;;;;11.57;6.22;;;11.50;99.90;;;;;;5019678;28;20241;-89
2023/04/17 10:43:08;;;;;;;11.65;4.68;;;10.40;99.90;;;;;;5020646;28;20176;-89
2023/04/17 10:46:08;;;;;;;7.72;4.35;;;11.40;99.90;;;;;;5020054;28;20173;-88
2023/04/17 10:48:49;;;;;;;12.02;5.30;;;11.40;99.90;;;;;;5036225;28;20172;-88
2023/04/17 10:51:25;;;;;;;9.77;5.32;;;11.40;99.90;;;;;;5006783;28;20212;-89
2023/04/17 10:54:09;;;;;;;14.60;6.65;;;11.30;99.90;;;;;;5036023;28;20189;-89
2023/04/17 10:56:40;;;;;;;15.82;7.13;;;11.30;99.90;;;;;;5036917;28;20172;-91
2023/04/17 10:59:17;;;;;;;11.85;5.97;;;11.40;99.90;;;;;;5002849;28;20715;-88
2023/04/17 11:01:46;;;;;;;19.38;8.43;;;11.30;99.90;;;;;;5003003;28;20185;-90
2023/04/17 11:04:22;;;;;;;13.95;6.50;;;11.40;99.90;;;;;;5018097;28;20181;-89
2023/04/17 11:06:49;;;;;;;12.27;5.95;;;11.40;99.90;;;;;;5018859;28;20275;-89
2023/04/17 11:09:18;;;;;;;11.77;4.75;;;11.40;99.90;;;;;;5021030;28;20647;-88
2023/04/17 11:11:44;;;;;;;13.73;5.22;;;11.40;99.90;;;;;;5013825;28;20184;-89
2023/04/17 11:14:20;;;;;;;11.48;6.32;;;11.40;99.90;;;;;;5035983;28;20173;-89
2023/04/17 11:16:47;;;;;;;11.10;4.93;;;11.40;99.90;;;;;;5034237;28;20256;-89
2023/04/17 11:19:20;;;;;;;11.43;5.97;;;12.40;99.90;;;;;;5034065;28;20177;-89
2023/04/17 11:21:48;;;;;;;12.50;4.85;;;11.30;99.90;;;;;;5016836;28;20180;-88
2023/04/17 11:24:31;;;;;;;9.85;5.15;;;11.30;99.90;;;;;;5030703;28;20173;-88
2023/04/17 11:26:58;;;;;;;12.75;5.72;;;11.30;99.90;;;;;;5049270;28;20168;-89
2023/04/17 11:29:25;;;;;;;12.48;5.35;;;11.30;99.90;;;;;;5047388;28;20256;-89
2023/04/17 11:31:54;;;;;;;16.52;5.05;;;11.40;99.90;;;;;;5048654;28;20172;-88
2023/04/17 11:34:20;;;;;;;11.95;4.70;;;11.40;99.90;;;;;;5052069;28;20161;-90
2023/04/17 11:36:50;;;;;;;8.95;3.92;;;11.40;99.90;;;;;;5001104;28;20632;-88
2023/04/17 11:39:16;;;;;;;14.05;5.22;;;11.30;99.90;;;;;;5030530;28;20177;-89
2023/04/17 11:41:46;;;;;;;10.00;5.30;;;11.30;99.90;;;;;;5038923;28;20208;-90
2023/04/17 11:44:12;;;;;;;11.07;4.40;;;11.50;99.90;;;;;;5022335;28;20187;-90
2023/04/17 11:46:41;;;;;;;11.48;4.75;;;11.70;99.90;;;;;;5024054;28;20204;-88
2023/04/17 11:49:18;;;;;;;;;;;;;;;;;;;;;
2023/04/17 11:51:45;;;;;;;10.50;4.63;;;11.20;99.90;;;;;;5059395;28;20211;-91
2023/04/17 11:54:29;;;;;;;9.32;4.85;;;11.30;99.90;;;;;;5035413;28;20194;-90
2023/04/17 11:57:03;;;;;;;9.48;4.75;;;11.10;99.90;;;;;;5032925;28;20229;-91
2023/04/17 11:59:40;;;;;;;10.13;4.47;;;11.10;99.90;;;;;;5049501;28;20183;-89
2023/04/17 12:02:07;;;;;;;7.90;3.90;;;8.70;99.90;;;;;;5032425;28;20188;-92
2023/04/17 12:04:35;;;;;;;6.95;4.07;;;10.30;99.90;;;;;;5030387;28;20252;-90
2023/04/17 12:07:02;;;;;;;10.52;4.80;;;11.10;99.90;;;;;;5041121;28;20176;-91
2023/04/17 12:09:31;;;;;;;6.65;3.88;;;11.40;99.90;;;;;;5045438;28;20196;-91
2023/04/17 12:12:02;;;;;;;7.20;4.20;;;12.80;99.90;;;;;;5044323;28;20183;-91
2023/04/17 12:14:31;;;;;;;6.50;4.25;;;11.10;99.90;;;;;;5042211;28;20514;-90
2023/04/17 12:16:57;;;;;;;7.75;3.92;;;11.00;99.90;;;;;;5052179;28;20183;-90
2023/04/17 12:19:26;;;;;;;6.75;4.10;;;10.80;99.90;;;;;;5038626;28;20206;-90
2023/04/17 12:21:53;;;;;;;7.25;4.15;;;10.80;99.90;;;;;;5036346;28;20286;-90
2023/04/17 12:24:24;;;;;;;8.93;4.25;;;13.50;99.90;;;;;;5035109;28;20161;-91
2023/04/17 12:26:52;;;;;;;8.45;4.72;;;10.40;99.90;;;;;;5044974;28;20183;-90
2023/04/17 12:29:18;;;;;;;10.45;5.60;;;10.70;99.90;;;;;;5045335;28;20291;-89
2023/04/17 12:32:03;;;;;;;8.88;4.22;;;10.80;99.90;;;;;;5060558;28;20654;-88
2023/04/17 12:34:33;;;;;;;8.77;4.55;;;11.00;99.90;;;;;;5060182;28;20164;-89
2023/04/17 12:36:59;;;;;;;7.63;4.07;;;10.70;99.90;;;;;;5047178;28;20642;-88
2023/04/17 12:39:25;;;;;;;5.45;4.18;;;;;;;;;;5057169;28;20267;-88
2023/04/17 12:41:51;;;;;;;10.57;4.57;;;10.70;99.90;;;;;;5031157;28;20179;-90
2023/04/17 12:44:17;;;;;;;6.28;3.80;;;;;;;;;;5043711;28;20172;-87
2023/04/17 12:46:45;;;;;;;8.35;4.15;;;10.70;99.90;;;;;;5047560;28;20654;-87
2023/04/17 12:49:13;;;;;;;6.60;3.83;;;;;;;;;;5033400;28;20263;-86
2023/04/17 12:51:39;;;;;;;5.95;3.95;;;10.60;99.90;;;;;;5042036;28;20194;-88
2023/04/17 12:54:06;;;;;;;7.35;3.35;;;10.70;99.90;;;;;;5050288;28;20180;-88
2023/04/17 12:56:32;;;;;;;6.57;3.45;;;10.60;99.90;;;;;;5033881;28;20188;-89
2023/04/17 12:58:58;;;;;;;9.77;4.00;;;;;;;;;;5031542;28;20608;-90
2023/04/17 13:01:24;;;;;;;8.23;4.00;;;10.60;99.90;;;;;;5046172;28;20556;-86
2023/04/17 13:03:50;;;;;;;5.47;3.58;;;10.60;99.90;;;;;;5054646;28;20168;-87
2023/04/17 13:06:35;;;;;;;7.82;3.70;;;10.50;99.90;;;;;;5028146;28;20206;-86
2023/04/17 13:09:01;;;;;;;8.05;4.05;;;10.50;99.90;;;;;;5031595;28;20326;-90